createdAt,value
2022-09-13T00:01:59.151Z,3.60
2022-09-13T00:04:26.500Z,4.07
2022-09-13T00:06:53.834Z,3.90
2022-09-13T00:09:21.109Z,4.37
2022-09-13T00:11:49.727Z,5.07
2022-09-13T00:14:16.971Z,4.10
2022-09-13T00:16:44.233Z,4.13
2022-09-13T00:19:11.496Z,4.30
2022-09-13T00:21:38.788Z,4.27
2022-09-13T00:24:06.263Z,4.40
2022-09-13T00:26:33.521Z,4.10
2022-09-13T00:29:02.096Z,4.20
2022-09-13T00:31:29.710Z,4.30
2022-09-13T00:33:59.847Z,4.33
2022-09-13T00:36:27.402Z,5.03
2022-09-13T00:38:54.790Z,4.30
2022-09-13T00:41:22.257Z,4.63
2022-09-13T00:43:53.264Z,4.47
2022-09-13T00:46:43.265Z,3.70
2022-09-13T00:49:17.077Z,4.73
2022-09-13T00:51:51.439Z,5.90
2022-09-13T00:54:22.820Z,4.70
2022-09-13T00:56:55.675Z,5.17
2022-09-13T00:59:28.593Z,6.00
2022-09-13T01:01:58.567Z,4.97
2022-09-13T01:04:31.290Z,5.60
2022-09-13T01:07:04.496Z,5.90
2022-09-13T01:09:36.649Z,5.33
2022-09-13T01:12:18.666Z,5.97
2022-09-13T01:14:47.667Z,5.80
2022-09-13T01:17:16.332Z,6.40
2022-09-13T01:19:43.786Z,5.80
2022-09-13T01:22:51.373Z,6.13
2022-09-13T01:26:08.243Z,5.73
2022-09-13T01:29:15.239Z,6.00
2022-09-13T01:31:54.739Z,6.20
2022-09-13T01:34:41.274Z,7.17
2022-09-13T01:37:38.416Z,7.00
2022-09-13T01:40:22.080Z,6.73
2022-09-13T01:43:14.922Z,6.70
2022-09-13T01:45:56.110Z,6.97
2022-09-13T01:48:42.898Z,6.40
2022-09-13T01:51:21.457Z,5.70
2022-09-13T01:54:06.662Z,5.67
2022-09-13T01:56:42.374Z,6.70
2022-09-13T01:59:20.957Z,7.63
2022-09-13T02:01:58.112Z,8.00
2022-09-13T02:04:35.222Z,7.93
2022-09-13T02:07:14.578Z,8.30
2022-09-13T02:09:48.726Z,8.77
2022-09-13T02:12:21.038Z,8.23
2022-09-13T02:14:57.506Z,8.30
2022-09-13T02:17:32.481Z,8.70
2022-09-13T02:20:10.103Z,9.20
2022-09-13T02:22:46.885Z,8.90
2022-09-13T02:25:17.667Z,8.67
2022-09-13T02:27:51.591Z,9.57
2022-09-13T02:30:19.679Z,8.90
2022-09-13T02:32:54.937Z,9.43
2022-09-13T02:35:31.389Z,9.83
2022-09-13T02:38:04.821Z,9.37
2022-09-13T02:40:42.180Z,9.37
2022-09-13T02:43:16.286Z,9.97
2022-09-13T02:45:52.960Z,10.73
2022-09-13T02:48:36.773Z,9.67
2022-09-13T02:51:17.114Z,8.43
2022-09-13T02:53:53.521Z,8.90
2022-09-13T02:56:30.112Z,8.07
2022-09-13T02:59:05.851Z,8.60
2022-09-13T03:01:36.797Z,8.83
2022-09-13T03:04:04.196Z,9.87
2022-09-13T03:06:32.934Z,9.53
2022-09-13T03:09:04.879Z,10.80
2022-09-13T03:11:52.019Z,10.50
2022-09-13T03:14:37.603Z,10.33
2022-09-13T03:17:20.970Z,10.20
2022-09-13T03:20:09.212Z,11.30
2022-09-13T03:23:34.586Z,9.77
2022-09-13T03:26:35.372Z,11.50
2022-09-13T03:29:24.710Z,10.83
2022-09-13T03:32:10.805Z,11.60
2022-09-13T03:34:48.604Z,11.37
2022-09-13T03:37:28.391Z,11.70
2022-09-13T03:40:03.892Z,12.00
2022-09-13T03:42:41.357Z,13.77
2022-09-13T03:45:13.318Z,13.30
2022-09-13T03:47:45.279Z,11.40
2022-09-13T03:50:19.607Z,11.47
2022-09-13T03:52:52.604Z,11.03
2022-09-13T03:55:22.458Z,14.40
2022-09-13T03:57:49.827Z,13.83
2022-09-13T04:00:18.300Z,13.63
2022-09-13T04:02:45.625Z,10.90
2022-09-13T04:05:13.130Z,11.27
2022-09-13T04:07:40.360Z,10.57
2022-09-13T04:10:13.565Z,12.17
2022-09-13T04:12:42.602Z,12.07
2022-09-13T04:15:10.289Z,12.23
2022-09-13T04:17:37.523Z,13.70
2022-09-13T04:20:05.886Z,12.83
2022-09-13T04:22:33.560Z,13.03
2022-09-13T04:25:02.613Z,13.63
2022-09-13T04:27:30.075Z,14.80
2022-09-13T04:29:58.787Z,15.10
2022-09-13T04:32:25.979Z,13.13
2022-09-13T04:34:53.557Z,14.03
2022-09-13T04:37:21.111Z,14.40
2022-09-13T04:39:48.379Z,13.73
2022-09-13T04:42:15.594Z,14.27
2022-09-13T04:44:44.853Z,14.77
2022-09-13T04:47:13.428Z,13.83
2022-09-13T04:49:40.803Z,14.00
2022-09-13T04:52:08.132Z,13.27
2022-09-13T04:54:35.420Z,14.00
2022-09-13T04:57:02.640Z,15.70
2022-09-13T04:59:29.877Z,15.90
2022-09-13T05:01:59.991Z,15.30
2022-09-13T05:04:28.699Z,14.90
2022-09-13T05:06:56.011Z,14.73
2022-09-13T05:09:23.267Z,14.47
2022-09-13T05:11:51.231Z,14.97
2022-09-13T05:14:18.515Z,14.07
2022-09-13T05:16:45.738Z,13.90
2022-09-13T05:19:13.411Z,14.83
2022-09-13T05:21:42.034Z,14.70
2022-09-13T05:24:09.651Z,14.50
2022-09-13T05:26:37.003Z,14.03
2022-09-13T05:29:05.114Z,14.20
2022-09-13T05:31:36.455Z,13.77
2022-09-13T05:34:07.231Z,13.03
2022-09-13T05:36:35.001Z,13.30
2022-09-13T05:39:31.901Z,14.53
2022-09-13T05:41:52.302Z,12.83
2022-09-13T05:44:19.609Z,12.80
2022-09-13T05:46:48.576Z,12.23
2022-09-13T05:49:16.157Z,12.07
2022-09-13T05:51:43.482Z,13.77
2022-09-13T05:54:13.717Z,15.00
2022-09-13T05:56:40.987Z,14.13
2022-09-13T05:59:12.582Z,14.67
2022-09-13T06:01:40.184Z,13.53
2022-09-13T06:04:07.479Z,12.87
2022-09-13T06:06:35.684Z,13.37
2022-09-13T06:09:03.491Z,12.43
2022-09-13T06:11:32.570Z,14.20
2022-09-13T06:14:00.082Z,12.50
2022-09-13T06:16:27.452Z,13.80
2022-09-13T06:18:55.043Z,13.10
2022-09-13T06:21:28.297Z,12.90
2022-09-13T06:23:56.902Z,12.70
2022-09-13T06:26:26.797Z,13.43
2022-09-13T06:28:58.126Z,13.60
2022-09-13T06:31:28.506Z,12.10
2022-09-13T06:33:59.550Z,12.30
2022-09-13T06:36:27.804Z,14.03
2022-09-13T06:38:55.525Z,12.97
2022-09-13T06:41:25.014Z,11.50
2022-09-13T06:43:57.554Z,12.90
2022-09-13T06:46:27.019Z,11.53
2022-09-13T06:48:55.271Z,11.63
2022-09-13T06:51:25.306Z,11.73
2022-09-13T06:53:56.685Z,10.73
2022-09-13T06:56:26.938Z,10.53
2022-09-13T06:58:59.828Z,11.70
2022-09-13T07:01:30.203Z,11.80
2022-09-13T07:04:02.278Z,11.77
2022-09-13T07:06:32.228Z,10.13
2022-09-13T07:09:01.783Z,11.37
2022-09-13T07:11:35.186Z,11.03
2022-09-13T07:14:06.690Z,10.77
2022-09-13T07:16:37.476Z,10.63
2022-09-13T07:19:07.974Z,10.10
2022-09-13T07:21:35.977Z,11.03
2022-09-13T07:24:04.309Z,11.20
2022-09-13T07:26:31.748Z,11.57
2022-09-13T07:29:02.751Z,10.80
2022-09-13T07:31:34.176Z,10.57
2022-09-13T07:34:04.047Z,10.53
2022-09-13T07:36:34.446Z,9.20
2022-09-13T07:39:03.061Z,12.60
2022-09-13T07:41:32.576Z,10.70
2022-09-13T07:44:07.995Z,7.97
2022-09-13T07:46:39.961Z,10.30
2022-09-13T07:49:07.982Z,9.93
2022-09-13T07:51:39.615Z,9.47
2022-09-13T07:54:12.069Z,9.70
2022-09-13T07:56:41.785Z,10.43
2022-09-13T07:59:14.489Z,10.40
2022-09-13T08:01:45.737Z,9.30
2022-09-13T08:04:17.782Z,8.70
2022-09-13T08:06:46.806Z,10.10
2022-09-13T08:09:16.777Z,10.27
2022-09-13T08:11:46.876Z,9.20
2022-09-13T08:14:16.763Z,8.60
2022-09-13T08:16:46.015Z,8.53
2022-09-13T08:19:16.580Z,8.97
2022-09-13T08:21:44.442Z,8.57
2022-09-13T08:24:16.698Z,8.30
2022-09-13T08:26:44.872Z,7.60
2022-09-13T08:29:13.978Z,8.47
2022-09-13T08:31:42.007Z,7.17
2022-09-13T08:34:14.562Z,9.37
2022-09-13T08:36:42.253Z,8.97
2022-09-13T08:39:13.512Z,7.77
2022-09-13T08:42:03.764Z,8.43
2022-09-13T08:44:36.379Z,4.03
2022-09-13T08:47:28.806Z,3.10
2022-09-13T08:50:07.113Z,2.07
2022-09-13T08:52:46.779Z,3.33
2022-09-13T08:55:26.506Z,3.73
2022-09-13T08:58:06.028Z,4.60
2022-09-13T09:00:39.709Z,4.20
2022-09-13T09:03:24.329Z,3.70
2022-09-13T09:05:54.454Z,13.10
2022-09-13T09:08:34.360Z,4.67
2022-09-13T09:11:10.230Z,4.27
2022-09-13T09:13:52.620Z,4.73
2022-09-13T09:16:36.244Z,3.77
2022-09-13T09:19:19.175Z,3.67
2022-09-13T09:21:51.535Z,5.13
2022-09-13T09:24:23.942Z,3.30
2022-09-13T09:26:53.878Z,2.90
2022-09-13T09:29:26.039Z,2.97
2022-09-13T09:32:09.418Z,3.03
2022-09-13T09:34:54.912Z,2.97
2022-09-13T09:37:26.043Z,7.23
2022-09-13T09:40:02.804Z,3.03
2022-09-13T09:42:39.531Z,2.70
2022-09-13T09:45:26.827Z,2.50
2022-09-13T09:47:56.790Z,2.13
2022-09-13T09:50:29.754Z,2.03
2022-09-13T09:53:06.468Z,2.00
2022-09-13T09:55:44.521Z,2.60
2022-09-13T09:58:16.766Z,1.60
2022-09-13T10:00:53.457Z,2.30
2022-09-13T10:03:26.819Z,1.83
2022-09-13T10:06:06.602Z,1.37
2022-09-13T10:08:38.152Z,1.57
2022-09-13T10:11:07.562Z,1.60
2022-09-13T10:13:35.964Z,1.50
2022-09-13T10:16:07.653Z,1.15
2022-09-13T10:18:45.360Z,1.60
2022-09-13T10:21:25.093Z,1.57
2022-09-13T10:24:21.250Z,1.60
2022-09-13T10:26:48.683Z,1.30
2022-09-13T10:29:18.750Z,1.58
2022-09-13T10:31:53.389Z,1.37
2022-09-13T10:34:25.541Z,1.60
2022-09-13T10:36:59.076Z,1.98
2022-09-13T10:39:34.241Z,2.03
2022-09-13T10:42:05.176Z,5.40
2022-09-13T10:44:41.626Z,1.52
2022-09-13T10:47:29.681Z,2.22
2022-09-13T10:49:59.692Z,1.52
2022-09-13T10:52:32.149Z,1.70
2022-09-13T10:55:31.674Z,2.10
2022-09-13T10:58:19.849Z,1.70
2022-09-13T11:01:30.238Z,1.40
2022-09-13T11:04:41.116Z,1.60
2022-09-13T11:07:37.541Z,1.60
2022-09-13T11:10:20.883Z,2.30
2022-09-13T11:12:59.568Z,2.10
2022-09-13T11:15:47.327Z,2.13
2022-09-13T11:19:15.763Z,2.03
2022-09-13T11:22:09.017Z,1.70
2022-09-13T11:25:01.856Z,1.30
2022-09-13T11:27:44.754Z,1.33
2022-09-13T11:30:19.557Z,2.17
2022-09-13T11:33:23.948Z,1.20
2022-09-13T11:36:30.725Z,1.07
2022-09-13T11:39:13.535Z,1.10
2022-09-13T11:41:51.953Z,1.40
2022-09-13T11:44:54.372Z,1.70
2022-09-13T11:47:44.431Z,1.67
2022-09-13T11:50:43.324Z,1.47
2022-09-13T11:53:50.433Z,1.40
2022-09-13T11:56:24.266Z,1.50
2022-09-13T11:58:59.469Z,2.30
2022-09-13T12:01:34.255Z,1.67
2022-09-13T12:04:13.922Z,2.20
2022-09-13T12:06:47.008Z,1.67
2022-09-13T12:09:22.077Z,1.23
2022-09-13T12:11:54.662Z,1.33
2022-09-13T12:14:27.275Z,1.60
2022-09-13T12:17:02.297Z,1.33
2022-09-13T12:19:43.812Z,2.10
2022-09-13T12:22:13.227Z,1.80
2022-09-13T12:24:47.132Z,1.30
2022-09-13T12:27:28.383Z,1.17
2022-09-13T12:30:17.343Z,1.17
2022-09-13T12:32:47.850Z,1.70
2022-09-13T12:35:28.866Z,1.80
2022-09-13T12:38:32.268Z,2.90
2022-09-13T12:41:35.989Z,1.97
2022-09-13T12:44:41.229Z,2.10
2022-09-13T12:47:54.892Z,2.50
2022-09-13T12:50:46.011Z,2.00
2022-09-13T12:54:00.400Z,1.57
2022-09-13T12:57:02.982Z,1.40
2022-09-13T13:00:13.098Z,1.70
2022-09-13T13:02:54.451Z,1.63
2022-09-13T13:05:32.441Z,2.70
2022-09-13T13:08:06.231Z,1.40
2022-09-13T13:10:38.147Z,2.50
2022-09-13T13:13:15.008Z,1.70
2022-09-13T13:16:04.590Z,1.53
2022-09-13T13:18:45.027Z,1.90
2022-09-13T13:21:40.865Z,1.20
2022-09-13T13:24:47.969Z,1.17
2022-09-13T13:27:48.070Z,1.30
2022-09-13T13:30:51.242Z,2.13
2022-09-13T13:33:23.443Z,1.47
2022-09-13T13:35:51.672Z,1.20
2022-09-13T13:38:47.758Z,1.37
2022-09-13T13:41:40.510Z,1.37
2022-09-13T13:44:57.992Z,1.50
2022-09-13T13:48:10.765Z,1.70
2022-09-13T13:51:29.289Z,1.20
2022-09-13T13:54:04.465Z,1.63
2022-09-13T13:56:48.535Z,1.70
2022-09-13T13:59:25.052Z,1.30
2022-09-13T14:01:59.279Z,1.43
2022-09-13T14:05:09.267Z,1.50
2022-09-13T14:08:20.909Z,1.43
2022-09-13T14:11:01.655Z,1.80
2022-09-13T14:13:49.850Z,1.67
2022-09-13T14:16:37.258Z,1.60
2022-09-13T14:19:23.861Z,1.97
2022-09-13T14:22:15.639Z,1.00
2022-09-13T14:24:46.494Z,1.43
2022-09-13T14:27:23.659Z,1.80
2022-09-13T14:29:55.372Z,1.50
2022-09-13T14:32:31.574Z,1.80
2022-09-13T14:35:06.637Z,1.93
2022-09-13T14:37:38.105Z,1.70
2022-09-13T14:40:18.432Z,2.00
2022-09-13T14:42:49.813Z,2.17
2022-09-13T14:45:21.627Z,1.33
2022-09-13T14:47:56.875Z,1.90
2022-09-13T14:50:30.019Z,1.80
2022-09-13T14:53:01.002Z,1.90
2022-09-13T14:55:33.010Z,1.40
2022-09-13T14:58:06.120Z,1.40
2022-09-13T15:00:45.500Z,1.70
2022-09-13T15:03:16.853Z,1.60
2022-09-13T15:05:53.460Z,1.40
2022-09-13T15:08:45.073Z,1.80
2022-09-13T15:11:28.855Z,2.37
2022-09-13T15:14:23.161Z,2.10
2022-09-13T15:16:53.585Z,2.00
2022-09-13T15:19:40.857Z,1.83
2022-09-13T15:22:31.810Z,2.57
2022-09-13T15:25:02.278Z,2.23
2022-09-13T15:27:42.730Z,2.20
2022-09-13T15:30:24.045Z,2.40
2022-09-13T15:33:06.681Z,2.73
2022-09-13T15:35:38.526Z,2.30
2022-09-13T15:38:21.390Z,2.57
2022-09-13T15:41:01.626Z,2.00
2022-09-13T15:43:30.947Z,2.00
2022-09-13T15:46:01.975Z,1.77
2022-09-13T15:48:32.005Z,2.00
2022-09-13T15:51:11.444Z,1.83
2022-09-13T15:53:40.959Z,2.23
2022-09-13T15:56:13.407Z,2.43
2022-09-13T15:58:40.690Z,1.93
2022-09-13T16:01:12.806Z,2.43
2022-09-13T16:03:40.507Z,2.67
2022-09-13T16:06:09.506Z,2.27
2022-09-13T16:08:37.769Z,2.57
2022-09-13T16:11:06.031Z,1.90
2022-09-13T16:13:33.776Z,2.43
2022-09-13T16:16:01.666Z,2.40
2022-09-13T16:18:30.701Z,2.60
2022-09-13T16:20:57.930Z,2.47
2022-09-13T16:23:25.284Z,2.80
2022-09-13T16:25:58.233Z,2.57
2022-09-13T16:28:26.537Z,2.27
2022-09-13T16:30:54.540Z,1.73
2022-09-13T16:33:21.997Z,2.77
2022-09-13T16:35:50.628Z,3.63
2022-09-13T16:38:18.306Z,3.67
2022-09-13T16:40:45.615Z,2.77
2022-09-13T16:43:13.612Z,2.80
2022-09-13T16:45:42.093Z,3.60
2022-09-13T16:48:09.680Z,2.27
2022-09-13T16:50:40.466Z,2.77
2022-09-13T16:53:09.486Z,3.80
2022-09-13T16:55:36.961Z,3.17
2022-09-13T16:58:04.551Z,4.60
2022-09-13T17:00:32.046Z,2.77
2022-09-13T17:02:59.497Z,3.23
2022-09-13T17:05:27.846Z,2.87
2022-09-13T17:07:55.183Z,2.40
2022-09-13T17:10:24.196Z,2.00
2022-09-13T17:12:51.793Z,2.63
2022-09-13T17:15:19.206Z,2.30
2022-09-13T17:17:46.496Z,2.33
2022-09-13T17:20:14.829Z,2.27
2022-09-13T17:22:42.318Z,1.67
2022-09-13T17:25:10.654Z,1.73
2022-09-13T17:27:39.368Z,2.20
2022-09-13T17:30:08.822Z,2.37
2022-09-13T17:32:36.147Z,2.37
2022-09-13T17:35:04.152Z,6.87
2022-09-13T17:37:31.547Z,2.27
2022-09-13T17:39:59.295Z,2.50
2022-09-13T17:42:27.151Z,1.77
2022-09-13T17:44:55.889Z,2.10
2022-09-13T17:47:23.299Z,2.57
2022-09-13T17:49:50.659Z,2.57
2022-09-13T17:52:17.941Z,2.30
2022-09-13T17:54:46.464Z,2.60
2022-09-13T17:57:15.585Z,2.40
2022-09-13T17:59:43.047Z,1.97
2022-09-13T18:02:11.805Z,2.97
2022-09-13T18:04:39.037Z,2.43
2022-09-13T18:07:06.670Z,2.00
2022-09-13T18:09:33.942Z,1.83
2022-09-13T18:12:01.938Z,2.57
2022-09-13T18:14:29.242Z,2.90
2022-09-13T18:16:57.962Z,2.17
2022-09-13T18:19:44.970Z,2.63
2022-09-13T18:22:13.612Z,1.93
2022-09-13T18:24:40.886Z,2.53
2022-09-13T18:27:08.236Z,1.77
2022-09-13T18:29:35.579Z,1.80
2022-09-13T18:32:03.016Z,1.80
2022-09-13T18:34:31.655Z,2.30
2022-09-13T18:36:58.907Z,2.13
2022-09-13T18:39:26.187Z,2.10
2022-09-13T18:41:53.505Z,2.00
2022-09-13T18:44:20.790Z,2.57
2022-09-13T18:46:49.223Z,2.70
2022-09-13T18:49:18.378Z,2.60
2022-09-13T18:51:47.057Z,2.43
2022-09-13T18:54:17.660Z,2.33
2022-09-13T18:56:45.631Z,2.40
2022-09-13T18:59:13.454Z,2.20
2022-09-13T19:01:43.785Z,2.17
2022-09-13T19:04:13.873Z,2.30
2022-09-13T19:06:43.636Z,2.53
2022-09-13T19:09:14.423Z,2.83
2022-09-13T19:11:47.225Z,2.67
2022-09-13T19:14:16.426Z,2.03
2022-09-13T19:16:44.201Z,2.50
2022-09-13T19:19:11.694Z,2.90
2022-09-13T19:21:39.287Z,2.73
2022-09-13T19:24:10.903Z,2.40
2022-09-13T19:26:44.575Z,2.50
2022-09-13T19:29:16.487Z,2.80
2022-09-13T19:31:48.365Z,2.90
2022-09-13T19:34:17.470Z,3.27
2022-09-13T19:36:45.601Z,2.97
2022-09-13T19:39:13.253Z,3.77
2022-09-13T19:41:42.340Z,2.90
2022-09-13T19:44:13.051Z,2.77
2022-09-13T19:46:42.348Z,2.70
2022-09-13T19:49:15.868Z,2.30
2022-09-13T19:51:49.981Z,2.40
2022-09-13T19:54:19.520Z,2.03
2022-09-13T19:56:48.351Z,2.50
2022-09-13T19:59:19.880Z,2.00
2022-09-13T20:01:48.352Z,1.93
2022-09-13T20:04:18.406Z,2.07
2022-09-13T20:06:48.433Z,2.23
2022-09-13T20:09:18.373Z,1.80
2022-09-13T20:11:48.773Z,1.33
2022-09-13T20:14:18.619Z,1.63
2022-09-13T20:16:46.913Z,1.70
2022-09-13T20:19:39.770Z,1.43
2022-09-13T20:22:06.965Z,1.63
2022-09-13T20:24:34.342Z,1.97
2022-09-13T20:27:02.967Z,2.10
2022-09-13T20:29:31.591Z,1.67
2022-09-13T20:31:59.904Z,1.90
2022-09-13T20:34:27.427Z,1.47
2022-09-13T20:36:54.839Z,1.97
2022-09-13T20:39:22.084Z,2.23
2022-09-13T20:41:50.057Z,2.13
2022-09-13T20:44:18.906Z,1.70
2022-09-13T20:46:46.263Z,1.60
2022-09-13T20:49:13.553Z,2.00
2022-09-13T20:51:40.876Z,1.77
2022-09-13T20:54:08.427Z,1.60
2022-09-13T20:56:36.212Z,1.77
2022-09-13T20:59:04.826Z,1.70
2022-09-13T21:01:34.311Z,2.33
2022-09-13T21:04:03.574Z,1.60
2022-09-13T21:06:39.135Z,1.73
2022-09-13T21:09:06.610Z,1.70
2022-09-13T21:11:36.768Z,2.17
2022-09-13T21:14:08.149Z,1.63
2022-09-13T21:16:40.809Z,1.97
2022-09-13T21:19:09.319Z,1.53
2022-09-13T21:21:40.588Z,1.60
2022-09-13T21:24:11.608Z,1.43
2022-09-13T21:26:43.342Z,1.20
2022-09-13T21:29:12.380Z,1.63
2022-09-13T21:31:41.067Z,1.60
2022-09-13T21:34:14.512Z,1.40
2022-09-13T21:36:43.078Z,1.73
2022-09-13T21:39:10.601Z,1.57
2022-09-13T21:41:38.259Z,1.60
2022-09-13T21:44:05.826Z,1.50
2022-09-13T21:46:36.004Z,1.73
2022-09-13T21:49:08.112Z,1.87
2022-09-13T21:51:37.731Z,1.37
2022-09-13T21:54:08.574Z,1.20
2022-09-13T21:56:38.600Z,1.20
2022-09-13T21:59:11.710Z,1.83
2022-09-13T22:01:41.628Z,2.20
2022-09-13T22:04:16.610Z,2.00
2022-09-13T22:06:45.422Z,1.47
2022-09-13T22:09:14.985Z,1.50
2022-09-13T22:11:46.097Z,1.50
2022-09-13T22:14:18.616Z,1.27
2022-09-13T22:16:46.822Z,1.40
2022-09-13T22:19:18.648Z,1.47
2022-09-13T22:21:49.885Z,1.30
2022-09-13T22:24:19.895Z,1.67
2022-09-13T22:26:50.053Z,1.47
2022-09-13T22:29:18.613Z,1.47
2022-09-13T22:31:48.470Z,1.73
2022-09-13T22:34:19.871Z,1.57
2022-09-13T22:36:47.672Z,1.30
2022-09-13T22:39:17.513Z,1.17
2022-09-13T22:41:45.614Z,2.07
2022-09-13T22:44:13.099Z,1.30
2022-09-13T22:46:42.550Z,1.53
2022-09-13T22:49:13.771Z,1.23
2022-09-13T22:51:45.018Z,2.03
2022-09-13T22:54:13.470Z,1.10
2022-09-13T22:56:41.324Z,1.10
2022-09-13T22:59:14.579Z,1.80
2022-09-13T23:01:42.766Z,1.57
2022-09-13T23:04:10.541Z,1.40
2022-09-13T23:06:38.651Z,1.37
2022-09-13T23:09:08.691Z,1.10
2022-09-13T23:11:38.889Z,1.30
2022-09-13T23:14:09.924Z,2.10
2022-09-13T23:16:40.936Z,1.40
2022-09-13T23:19:09.904Z,1.57
2022-09-13T23:21:37.927Z,1.53
2022-09-13T23:24:11.557Z,1.80
2022-09-13T23:26:39.901Z,1.60
2022-09-13T23:29:07.879Z,1.57
2022-09-13T23:31:38.878Z,1.70
2022-09-13T23:34:09.599Z,1.70
2022-09-13T23:36:39.734Z,1.60
2022-09-13T23:39:13.988Z,1.63
2022-09-13T23:41:41.339Z,1.30
2022-09-13T23:44:08.830Z,1.70
2022-09-13T23:46:36.260Z,1.60
2022-09-13T23:49:04.123Z,1.43
2022-09-13T23:51:31.892Z,1.30
2022-09-13T23:54:00.984Z,1.60
2022-09-13T23:56:32.984Z,1.43
2022-09-13T23:59:02.408Z,1.60
